Terminal Aerodrome Forecast
Issued by NWS

Home | Current Version | Previous Version | Text Only | Print | Product List | Glossary On
Versions: 1 2 3 4 5 6 7 8 9 10 11 12 13
757
FTUS46 KSEW 231721
TAFBFI
TAF
KBFI 231721Z 2318/2418 18006KT P6SM -RA OVC045
     FM232300 19008KT P6SM -SHRA BKN035 OVC050
     FM240200 18010KT P6SM -SHRA BKN025 OVC045
     FM240500 18005KT P6SM VCSH SCT030 OVC050
     FM241500 VRB03KT P6SM BKN050 BKN100=

USA.gov is the U.S. government's official web portal to all federal, state and local government web resources and services.